createdAt,value
2022-08-16T00:03:48.374Z,97570.00
2022-08-16T00:06:25.109Z,97566.00
2022-08-16T00:09:25.123Z,97571.00
2022-08-16T00:12:01.313Z,97572.00
2022-08-16T00:15:03.871Z,97577.00
2022-08-16T00:17:56.819Z,97572.00
2022-08-16T00:20:50.761Z,97575.00
2022-08-16T00:23:39.959Z,97590.00
2022-08-16T00:27:23.943Z,97596.00
2022-08-16T00:30:19.267Z,97586.00
2022-08-16T00:33:33.052Z,97594.00
2022-08-16T00:36:27.472Z,97586.00
2022-08-16T00:41:53.083Z,97583.00
2022-08-16T00:44:41.496Z,97595.00
2022-08-16T00:47:30.111Z,97602.00
2022-08-16T00:50:17.770Z,97587.00
2022-08-16T00:52:56.687Z,97583.00
2022-08-16T00:55:37.691Z,97590.00
2022-08-16T00:58:36.731Z,97591.00
2022-08-16T01:01:22.877Z,97610.00
2022-08-16T01:04:01.534Z,97602.00
2022-08-16T01:07:28.789Z,97596.00
2022-08-16T01:10:32.735Z,97600.00
2022-08-16T01:13:43.246Z,97598.00
2022-08-16T01:16:51.988Z,97590.00
2022-08-16T01:20:24.114Z,97598.00
2022-08-16T01:23:13.525Z,97597.00
2022-08-16T01:27:03.880Z,97602.00
2022-08-16T01:29:56.734Z,97595.00
2022-08-16T01:32:42.880Z,97599.00
2022-08-16T01:35:29.261Z,97595.00
2022-08-16T01:38:25.968Z,97598.00
2022-08-16T01:41:23.817Z,97607.00
2022-08-16T01:44:10.642Z,97604.00
2022-08-16T01:47:01.096Z,97609.00
2022-08-16T01:50:41.868Z,97602.00
2022-08-16T01:53:30.245Z,97599.00
2022-08-16T01:56:06.374Z,97607.00
2022-08-16T02:01:40.786Z,97601.00
2022-08-16T02:04:49.558Z,97605.00
2022-08-16T02:07:31.992Z,97586.00
2022-08-16T02:10:12.139Z,97588.00
2022-08-16T02:12:59.857Z,97595.00
2022-08-16T02:18:34.657Z,97607.00
2022-08-16T02:22:09.383Z,97595.00
2022-08-16T02:24:57.020Z,97593.00
2022-08-16T02:27:32.281Z,97584.00
2022-08-16T02:30:37.503Z,97583.00
2022-08-16T02:33:24.660Z,97586.00
2022-08-16T02:37:51.240Z,97585.00
2022-08-16T02:40:43.056Z,97575.00
2022-08-16T02:43:42.225Z,97579.00
2022-08-16T02:46:30.124Z,97580.00
2022-08-16T02:50:54.983Z,97582.00
2022-08-16T02:53:43.736Z,97588.00
2022-08-16T02:56:41.275Z,97581.00
2022-08-16T03:00:34.046Z,97584.00
2022-08-16T03:04:28.864Z,97580.00
2022-08-16T03:06:43.380Z,97570.00
2022-08-16T03:10:36.932Z,97577.00
2022-08-16T03:14:28.385Z,97566.00
2022-08-16T03:17:06.174Z,97562.00
2022-08-16T03:20:00.179Z,97555.00
2022-08-16T03:22:38.817Z,97538.00
2022-08-16T03:25:43.996Z,97568.00
2022-08-16T03:28:23.631Z,97541.00
2022-08-16T03:31:01.048Z,97555.00
2022-08-16T03:35:00.894Z,97551.00
2022-08-16T03:38:02.435Z,97541.00
2022-08-16T03:40:40.024Z,97545.00
2022-08-16T03:43:21.446Z,97541.00
2022-08-16T03:46:48.426Z,97552.00
2022-08-16T03:49:51.582Z,97546.00
2022-08-16T03:52:31.524Z,97546.00
2022-08-16T03:55:10.480Z,97554.00
2022-08-16T03:57:53.879Z,97547.00
2022-08-16T04:00:36.077Z,97556.00
2022-08-16T04:03:33.406Z,97548.00
2022-08-16T04:06:16.119Z,97551.00
2022-08-16T04:09:04.455Z,97546.00
2022-08-16T04:11:48.222Z,97552.00
2022-08-16T04:14:48.717Z,97545.00
2022-08-16T04:17:26.967Z,97546.00
2022-08-16T04:20:40.593Z,97550.00
2022-08-16T04:26:30.822Z,97547.00
2022-08-16T04:29:16.296Z,97553.00
2022-08-16T04:31:59.964Z,97543.00
2022-08-16T04:34:42.715Z,97559.00
2022-08-16T04:37:42.375Z,97571.00
2022-08-16T04:40:27.500Z,97584.00
2022-08-16T04:43:11.791Z,97566.00
2022-08-16T04:46:00.370Z,97579.00
2022-08-16T04:53:56.805Z,97587.00
2022-08-16T04:56:49.223Z,97581.00
2022-08-16T04:59:33.144Z,97575.00
2022-08-16T05:02:41.426Z,97591.00
2022-08-16T05:05:23.635Z,97592.00
2022-08-16T05:08:00.383Z,97582.00
2022-08-16T05:10:51.550Z,97595.00
2022-08-16T05:13:40.379Z,97590.00
2022-08-16T05:16:38.564Z,97610.00
2022-08-16T05:24:45.259Z,97601.00
2022-08-16T05:27:24.092Z,97608.00
2022-08-16T05:30:34.539Z,97598.00
2022-08-16T05:33:02.931Z,97617.00
2022-08-16T05:35:55.368Z,97594.00
2022-08-16T05:38:40.878Z,97596.00
2022-08-16T05:57:08.455Z,97623.00
2022-08-16T05:59:59.665Z,97616.00
2022-08-16T06:02:38.544Z,97606.00
2022-08-16T06:05:26.401Z,97611.00
2022-08-16T06:08:44.942Z,97612.00
2022-08-16T06:11:35.539Z,97610.00
2022-08-16T06:14:15.643Z,97616.00
2022-08-16T06:17:05.556Z,97612.00
2022-08-16T06:28:16.964Z,97615.00
2022-08-16T06:31:56.543Z,97609.00
2022-08-16T06:34:55.318Z,97620.00
2022-08-16T06:37:52.445Z,97623.00
2022-08-16T06:44:44.314Z,97622.00
2022-08-16T06:47:20.555Z,97639.00
2022-08-16T06:58:22.648Z,97638.00
2022-08-16T07:01:44.911Z,97630.00
2022-08-16T07:05:27.261Z,97633.00
2022-08-16T07:08:34.978Z,97628.00
2022-08-16T07:11:10.330Z,97626.00
2022-08-16T07:18:11.793Z,97631.00
2022-08-16T07:26:25.399Z,97641.00
2022-08-16T07:29:08.832Z,97630.00
2022-08-16T07:32:02.016Z,97632.00
2022-08-16T07:34:48.378Z,97637.00
2022-08-16T07:37:24.192Z,97626.00
2022-08-16T07:39:59.298Z,97619.00
2022-08-16T07:42:35.148Z,97622.00
2022-08-16T07:49:58.144Z,97624.00
2022-08-16T07:52:44.371Z,97634.00
2022-08-16T07:55:20.445Z,97621.00
2022-08-16T08:02:01.038Z,97648.00
2022-08-16T08:08:57.578Z,97642.00
2022-08-16T08:12:31.857Z,97644.00
2022-08-16T08:19:26.491Z,97664.00
2022-08-16T08:22:09.947Z,97654.00
2022-08-16T08:24:59.115Z,97652.00
2022-08-16T08:31:47.618Z,97650.00
2022-08-16T08:38:45.985Z,97670.00
2022-08-16T08:49:55.702Z,97665.00
2022-08-16T08:56:46.808Z,97681.00
2022-08-16T09:00:50.929Z,97685.00
2022-08-16T09:08:50.255Z,97678.00
2022-08-16T09:11:38.902Z,97680.00
2022-08-16T09:14:50.891Z,97667.00
2022-08-16T09:17:47.206Z,97676.00
2022-08-16T09:20:34.816Z,97684.00
2022-08-16T09:23:38.697Z,97677.00
2022-08-16T09:26:44.053Z,97679.00
2022-08-16T09:33:32.519Z,97670.00
2022-08-16T09:40:32.941Z,97662.00
2022-08-16T09:43:46.568Z,97664.00
2022-08-16T09:46:44.663Z,97681.00
2022-08-16T09:49:12.095Z,97666.00
2022-08-16T09:51:46.992Z,97672.00
2022-08-16T09:54:25.022Z,97672.00
2022-08-16T09:57:14.083Z,97669.00
2022-08-16T09:59:56.211Z,97657.00
2022-08-16T10:02:32.142Z,97669.00
2022-08-16T10:05:16.511Z,97657.00
2022-08-16T10:07:56.752Z,97666.00
2022-08-16T10:10:31.477Z,97657.00
2022-08-16T10:13:19.521Z,97660.00
2022-08-16T10:16:48.961Z,97655.00
2022-08-16T10:19:25.969Z,97666.00
2022-08-16T10:22:05.179Z,97665.00
2022-08-16T10:27:19.335Z,97661.00
2022-08-16T10:28:43.408Z,97674.00
2022-08-16T10:31:45.733Z,97663.00
2022-08-16T10:34:31.517Z,97670.00
2022-08-16T10:37:10.669Z,97674.00
2022-08-16T10:39:45.533Z,97670.00
2022-08-16T10:42:23.632Z,97675.00
2022-08-16T10:49:18.144Z,97661.00
2022-08-16T10:56:55.964Z,97674.00
2022-08-16T10:59:38.367Z,97669.00
2022-08-16T11:02:59.079Z,97671.00
2022-08-16T11:05:14.134Z,97668.00
2022-08-16T11:08:12.425Z,97667.00
2022-08-16T11:11:04.541Z,97672.00
2022-08-16T11:13:59.548Z,97688.00
2022-08-16T11:27:18.516Z,97660.00
2022-08-16T11:38:55.327Z,97661.00
2022-08-16T11:45:42.414Z,97655.00
2022-08-16T11:48:20.042Z,97650.00
2022-08-16T11:50:58.472Z,97654.00
2022-08-16T11:53:36.057Z,97657.00
2022-08-16T11:56:10.773Z,97645.00
2022-08-16T11:58:51.469Z,97661.00
2022-08-16T12:01:59.551Z,97644.00
2022-08-16T12:04:38.578Z,97657.00
2022-08-16T12:07:16.338Z,97636.00
2022-08-16T12:09:56.568Z,97637.00
2022-08-16T12:12:32.879Z,97627.00
2022-08-16T12:19:35.140Z,97639.00
2022-08-16T12:22:18.923Z,97632.00
2022-08-16T12:29:20.340Z,97635.00
2022-08-16T12:32:01.205Z,97629.00
2022-08-16T12:34:52.931Z,97644.00
2022-08-16T12:41:45.003Z,97625.00
2022-08-16T12:45:12.412Z,97625.00
2022-08-16T12:49:01.865Z,97619.00
2022-08-16T12:51:59.000Z,97628.00
2022-08-16T12:54:40.811Z,97621.00
2022-08-16T12:57:15.498Z,97622.00
2022-08-16T12:59:56.209Z,97617.00
2022-08-16T13:06:46.221Z,97609.00
2022-08-16T13:09:26.698Z,97607.00
2022-08-16T13:13:20.779Z,97611.00
2022-08-16T13:16:10.734Z,97605.00
2022-08-16T13:18:54.845Z,97604.00
2022-08-16T13:21:29.334Z,97594.00
2022-08-16T13:24:05.879Z,97599.00
2022-08-16T13:35:21.642Z,97606.00
2022-08-16T13:37:57.290Z,97602.00
2022-08-16T13:40:33.311Z,97605.00
2022-08-16T13:43:07.995Z,97592.00
2022-08-16T13:45:45.883Z,97609.00
2022-08-16T13:49:43.470Z,97593.00
2022-08-16T13:56:37.728Z,97589.00
2022-08-16T13:59:21.244Z,97594.00
2022-08-16T14:02:04.280Z,97592.00
2022-08-16T14:04:43.007Z,97587.00
2022-08-16T14:07:24.701Z,97585.00
2022-08-16T14:10:00.001Z,97589.00
2022-08-16T14:12:37.923Z,97589.00
2022-08-16T14:15:16.144Z,97589.00
2022-08-16T14:18:43.690Z,97583.00
2022-08-16T14:21:18.581Z,97573.00
2022-08-16T14:23:56.655Z,97576.00
2022-08-16T14:26:32.591Z,97569.00
2022-08-16T14:29:10.523Z,97568.00
2022-08-16T14:31:44.988Z,97558.00
2022-08-16T14:34:19.430Z,97572.00
2022-08-16T14:36:54.840Z,97580.00
2022-08-16T14:39:32.588Z,97579.00
2022-08-16T14:42:18.098Z,97583.00
2022-08-16T14:44:57.267Z,97581.00
2022-08-16T14:48:33.789Z,97572.00
2022-08-16T14:51:09.893Z,97569.00
2022-08-16T14:54:31.754Z,97578.00
2022-08-16T14:57:09.328Z,97574.00
2022-08-16T14:59:45.326Z,97582.00
2022-08-16T15:02:34.520Z,97576.00
2022-08-16T15:05:11.567Z,97582.00
2022-08-16T15:08:36.644Z,97572.00
2022-08-16T15:11:58.968Z,97575.00
2022-08-16T15:18:46.946Z,97577.00
2022-08-16T15:21:32.458Z,97572.00
2022-08-16T15:24:07.520Z,97571.00
2022-08-16T15:26:51.487Z,97573.00
2022-08-16T15:29:27.364Z,97572.00
2022-08-16T15:32:04.363Z,97584.00
2022-08-16T15:35:49.051Z,97573.00
2022-08-16T15:47:06.908Z,97569.00
2022-08-16T16:04:09.142Z,97560.00
2022-08-16T16:06:54.844Z,97563.00
2022-08-16T16:09:36.947Z,97569.00
2022-08-16T16:12:42.095Z,97566.00
2022-08-16T16:15:07.807Z,97565.00
2022-08-16T16:17:42.511Z,97562.00
2022-08-16T16:20:18.761Z,97575.00
2022-08-16T16:22:54.636Z,97573.00
2022-08-16T16:25:38.477Z,97557.00
2022-08-16T16:29:05.272Z,97567.00
2022-08-16T16:31:12.080Z,97551.00
2022-08-16T16:33:52.989Z,97564.00
2022-08-16T16:36:33.508Z,97555.00
2022-08-16T16:39:11.703Z,97546.00
2022-08-16T16:41:50.261Z,97555.00
2022-08-16T16:44:33.801Z,97555.00
2022-08-16T16:47:10.899Z,97545.00
2022-08-16T16:49:45.312Z,97563.00
2022-08-16T16:56:37.531Z,97563.00
2022-08-16T16:59:11.656Z,97564.00
2022-08-16T17:01:59.848Z,97558.00
2022-08-16T17:05:04.396Z,97553.00
2022-08-16T17:07:50.525Z,97553.00
2022-08-16T17:10:46.606Z,97558.00
2022-08-16T17:13:25.807Z,97567.00
2022-08-16T17:16:02.260Z,97559.00
2022-08-16T17:22:54.480Z,97571.00
2022-08-16T17:26:22.283Z,97577.00
2022-08-16T17:29:11.196Z,97572.00
2022-08-16T17:31:50.529Z,97568.00
2022-08-16T17:34:32.899Z,97565.00
2022-08-16T17:41:32.529Z,97568.00
2022-08-16T17:44:09.351Z,97568.00
2022-08-16T17:46:52.537Z,97555.00
2022-08-16T17:49:27.281Z,97576.00
2022-08-16T17:52:03.065Z,97560.00
2022-08-16T17:54:37.563Z,97575.00
2022-08-16T17:57:12.542Z,97583.00
2022-08-16T17:59:50.671Z,97572.00
2022-08-16T18:02:43.884Z,97574.00
2022-08-16T18:05:45.425Z,97578.00
2022-08-16T18:08:21.409Z,97567.00
2022-08-16T18:11:03.443Z,97567.00
2022-08-16T18:14:09.170Z,97567.00
2022-08-16T18:16:48.793Z,97571.00
2022-08-16T18:19:44.776Z,97577.00
2022-08-16T18:22:26.927Z,97566.00
2022-08-16T18:25:08.362Z,97572.00
2022-08-16T18:27:43.149Z,97581.00
2022-08-16T18:30:18.099Z,97587.00
2022-08-16T18:32:55.387Z,97588.00
2022-08-16T18:35:30.793Z,97587.00
2022-08-16T18:38:05.655Z,97579.00
2022-08-16T18:40:41.695Z,97590.00
2022-08-16T18:43:19.913Z,97588.00
2022-08-16T18:45:56.749Z,97592.00
2022-08-16T18:48:37.805Z,97593.00
2022-08-16T18:51:20.301Z,97574.00
2022-08-16T18:58:36.763Z,97596.00
2022-08-16T19:01:11.331Z,97607.00
2022-08-16T19:03:48.473Z,97602.00
2022-08-16T19:06:23.063Z,97599.00
2022-08-16T19:09:02.781Z,97600.00
2022-08-16T19:11:38.208Z,97616.00
2022-08-16T19:14:12.953Z,97616.00
2022-08-16T19:17:20.261Z,97623.00
2022-08-16T19:19:56.931Z,97613.00
2022-08-16T19:23:02.211Z,97623.00
2022-08-16T19:25:49.621Z,97625.00
2022-08-16T19:28:51.138Z,97624.00
2022-08-16T19:31:38.840Z,97627.00
2022-08-16T19:34:17.919Z,97644.00
2022-08-16T19:36:57.355Z,97637.00
2022-08-16T19:39:33.412Z,97644.00
2022-08-16T19:42:18.027Z,97649.00
2022-08-16T19:48:06.163Z,97636.00
2022-08-16T19:50:43.565Z,97639.00
2022-08-16T19:57:24.159Z,97628.00
2022-08-16T20:00:01.843Z,97631.00
2022-08-16T20:07:05.554Z,97630.00
2022-08-16T20:09:42.659Z,97620.00
2022-08-16T20:13:01.831Z,97640.00
2022-08-16T20:15:52.121Z,97651.00
2022-08-16T20:18:29.618Z,97625.00
2022-08-16T20:21:05.310Z,97618.00
2022-08-16T20:23:40.246Z,97644.00
2022-08-16T20:26:19.711Z,97616.00
2022-08-16T20:28:56.084Z,97637.00
2022-08-16T20:31:57.564Z,97623.00
2022-08-16T20:34:39.119Z,97623.00
2022-08-16T20:37:44.180Z,97629.00
2022-08-16T20:40:33.792Z,97641.00
2022-08-16T20:43:30.214Z,97632.00
2022-08-16T20:46:05.204Z,97648.00
2022-08-16T20:48:40.244Z,97636.00
2022-08-16T20:51:30.361Z,97633.00
2022-08-16T20:54:22.756Z,97645.00
2022-08-16T20:56:57.486Z,97640.00
2022-08-16T20:59:34.313Z,97639.00
2022-08-16T21:02:20.061Z,97650.00
2022-08-16T21:04:55.600Z,97641.00
2022-08-16T21:07:31.773Z,97637.00
2022-08-16T21:10:15.615Z,97637.00
2022-08-16T21:13:01.989Z,97643.00
2022-08-16T21:15:40.205Z,97636.00
2022-08-16T21:18:27.144Z,97643.00
2022-08-16T21:22:03.739Z,97643.00
2022-08-16T21:25:41.481Z,97643.00
2022-08-16T21:28:40.070Z,97656.00
2022-08-16T21:31:21.166Z,97646.00
2022-08-16T21:33:56.947Z,97643.00
2022-08-16T21:36:35.056Z,97657.00
2022-08-16T21:39:50.930Z,97652.00
2022-08-16T21:42:26.774Z,97643.00
2022-08-16T21:45:03.757Z,97669.00
2022-08-16T21:47:50.081Z,97673.00
2022-08-16T21:50:25.596Z,97656.00
2022-08-16T21:53:13.413Z,97667.00
2022-08-16T21:55:57.446Z,97660.00
2022-08-16T21:58:33.327Z,97667.00
2022-08-16T22:01:08.498Z,97654.00
2022-08-16T22:03:45.910Z,97656.00
2022-08-16T22:06:39.394Z,97647.00
2022-08-16T22:09:16.414Z,97654.00
2022-08-16T22:11:51.126Z,97649.00
2022-08-16T22:14:27.971Z,97660.00
2022-08-16T22:17:03.124Z,97664.00
2022-08-16T22:19:39.868Z,97662.00
2022-08-16T22:22:15.445Z,97655.00
2022-08-16T22:24:49.952Z,97679.00
2022-08-16T22:27:28.502Z,97674.00
2022-08-16T22:30:03.384Z,97674.00
2022-08-16T22:32:44.134Z,97674.00
2022-08-16T22:35:21.817Z,97672.00
2022-08-16T22:38:50.525Z,97682.00
2022-08-16T22:40:53.464Z,97677.00
2022-08-16T22:43:29.944Z,97668.00
2022-08-16T22:46:09.181Z,97688.00
2022-08-16T22:48:45.921Z,97685.00
2022-08-16T22:51:24.337Z,97677.00
2022-08-16T22:54:34.192Z,97676.00
2022-08-16T22:57:20.110Z,97681.00
2022-08-16T22:59:55.067Z,97678.00
2022-08-16T23:02:33.153Z,97669.00
2022-08-16T23:06:24.534Z,97669.00
2022-08-16T23:09:01.961Z,97658.00
2022-08-16T23:11:45.267Z,97659.00
2022-08-16T23:14:27.656Z,97658.00
2022-08-16T23:17:32.668Z,97657.00
2022-08-16T23:20:56.698Z,97653.00
2022-08-16T23:23:32.184Z,97653.00
2022-08-16T23:26:43.774Z,97633.00
2022-08-16T23:29:23.305Z,97647.00
2022-08-16T23:32:13.318Z,97647.00
2022-08-16T23:35:15.433Z,97633.00
2022-08-16T23:37:51.758Z,97634.00
2022-08-16T23:40:28.681Z,97650.00
2022-08-16T23:43:09.620Z,97628.00
2022-08-16T23:46:01.255Z,97630.00
2022-08-16T23:49:57.198Z,97629.00
2022-08-16T23:51:45.402Z,97616.00
2022-08-16T23:55:36.593Z,97620.00
2022-08-16T23:58:40.102Z,97610.00
